createdAt,value
2018-01-23T00:01:19.129Z,39.70
2018-01-23T00:03:46.760Z,39.00
2018-01-23T00:06:14.384Z,30.13
2018-01-23T00:08:42.754Z,33.87
2018-01-23T00:11:11.111Z,35.90
2018-01-23T00:13:38.736Z,32.30
2018-01-23T00:16:06.323Z,30.03
2018-01-23T00:18:33.915Z,34.13
2018-01-23T00:21:02.304Z,28.60
2018-01-23T00:23:29.905Z,33.70
2018-01-23T00:25:57.504Z,27.60
2018-01-23T00:28:25.906Z,37.07
2018-01-23T00:30:53.504Z,32.33
2018-01-23T00:33:21.096Z,35.27
2018-01-23T00:35:48.776Z,30.70
2018-01-23T00:38:17.151Z,38.00
2018-01-23T00:40:45.511Z,45.13
2018-01-23T00:43:13.150Z,34.90
2018-01-23T00:45:40.771Z,34.43
2018-01-23T00:48:08.368Z,39.77
2018-01-23T00:50:36.004Z,31.70
2018-01-23T00:53:03.598Z,32.77
2018-01-23T00:55:31.187Z,34.50
2018-01-23T00:57:58.823Z,31.20
2018-01-23T01:00:26.413Z,32.57
2018-01-23T01:02:54.768Z,29.30
2018-01-23T01:05:22.401Z,28.70
2018-01-23T01:07:50.017Z,31.70
2018-01-23T01:10:18.377Z,36.50
2018-01-23T01:12:47.515Z,26.10
2018-01-23T01:15:15.108Z,30.00
2018-01-23T01:17:42.700Z,23.07
2018-01-23T01:20:10.324Z,26.17
2018-01-23T01:22:37.916Z,31.20
2018-01-23T01:25:05.515Z,23.87
2018-01-23T01:27:33.145Z,26.33
2018-01-23T01:30:01.512Z,28.20
2018-01-23T01:32:29.899Z,30.70
2018-01-23T01:34:57.527Z,28.37
2018-01-23T01:37:25.116Z,32.47
2018-01-23T01:39:52.724Z,24.57
2018-01-23T01:42:20.336Z,27.40
2018-01-23T01:44:47.949Z,27.20
2018-01-23T01:47:15.567Z,34.33
2018-01-23T01:49:43.172Z,27.13
2018-01-23T01:52:10.796Z,28.47
2018-01-23T01:54:39.164Z,27.03
2018-01-23T01:57:06.802Z,28.03
2018-01-23T01:59:34.391Z,24.63
2018-01-23T02:02:02.748Z,28.27
2018-01-23T02:04:30.387Z,27.87
2018-01-23T02:06:57.981Z,17.60
2018-01-23T02:09:25.605Z,25.03
2018-01-23T02:11:53.196Z,17.57
2018-01-23T02:14:21.589Z,21.80
2018-01-23T02:16:49.976Z,21.37
2018-01-23T02:19:18.360Z,19.07
2018-01-23T02:21:46.720Z,22.97
2018-01-23T02:24:15.087Z,22.30
2018-01-23T02:26:42.704Z,21.70
2018-01-23T02:29:10.288Z,17.80
2018-01-23T02:31:37.908Z,21.17
2018-01-23T02:34:05.498Z,17.27
2018-01-23T02:36:33.132Z,20.63
2018-01-23T02:39:00.723Z,24.63
2018-01-23T02:41:28.313Z,22.23
2018-01-23T02:43:55.945Z,22.43
2018-01-23T02:46:23.548Z,23.30
2018-01-23T02:48:51.912Z,14.37
2018-01-23T02:51:19.548Z,24.97
2018-01-23T02:53:47.153Z,23.13
2018-01-23T02:56:15.520Z,26.73
2018-01-23T02:58:43.145Z,20.37
2018-01-23T03:01:10.736Z,18.10
2018-01-23T03:03:38.362Z,23.67
2018-01-23T03:06:05.961Z,26.53
2018-01-23T03:08:33.580Z,21.87
2018-01-23T03:11:01.180Z,20.77
2018-01-23T03:13:28.817Z,22.30
2018-01-23T03:15:56.415Z,13.87
2018-01-23T03:18:24.780Z,27.63
2018-01-23T03:20:52.408Z,23.20
2018-01-23T03:23:20.010Z,25.13
2018-01-23T03:25:47.653Z,25.53
2018-01-23T03:28:15.249Z,20.17
2018-01-23T03:30:43.640Z,18.83
2018-01-23T03:33:11.231Z,23.67
2018-01-23T03:35:38.889Z,25.87
2018-01-23T03:38:06.512Z,23.70
2018-01-23T03:40:34.879Z,23.10
2018-01-23T03:43:03.273Z,22.80
2018-01-23T03:45:31.637Z,21.47
2018-01-23T03:48:00.035Z,22.97
2018-01-23T03:50:27.640Z,22.73
2018-01-23T03:52:55.249Z,19.60
2018-01-23T03:55:23.648Z,24.20
2018-01-23T03:57:51.233Z,20.10
2018-01-23T04:00:18.828Z,24.23
2018-01-23T04:02:47.228Z,20.43
2018-01-23T04:05:15.596Z,22.57
2018-01-23T04:07:43.953Z,23.27
2018-01-23T04:10:11.575Z,23.93
2018-01-23T04:12:39.172Z,23.67
2018-01-23T04:15:06.773Z,18.70
2018-01-23T04:17:34.412Z,23.33
2018-01-23T04:20:02.008Z,23.70
2018-01-23T04:22:29.599Z,18.73
2018-01-23T04:24:57.224Z,19.23
2018-01-23T04:27:24.921Z,25.10
2018-01-23T04:29:52.522Z,21.70
2018-01-23T04:32:20.916Z,13.70
2018-01-23T04:34:48.539Z,21.17
2018-01-23T04:37:16.182Z,21.13
2018-01-23T04:39:43.780Z,25.60
2018-01-23T04:42:12.128Z,17.43
2018-01-23T04:44:39.765Z,25.60
2018-01-23T04:47:07.352Z,26.10
2018-01-23T04:49:34.937Z,23.03
2018-01-23T04:52:02.574Z,26.50
2018-01-23T04:54:30.184Z,22.03
2018-01-23T04:56:57.772Z,24.77
2018-01-23T04:59:25.394Z,23.30
2018-01-23T05:01:53.754Z,32.50
2018-01-23T05:04:22.116Z,17.83
2018-01-23T05:06:50.515Z,21.00
2018-01-23T05:09:18.951Z,13.10
2018-01-23T05:11:46.544Z,21.03
2018-01-23T05:14:14.180Z,22.60
2018-01-23T05:16:41.768Z,26.90
2018-01-23T05:19:09.369Z,30.77
2018-01-23T05:21:37.081Z,24.13
2018-01-23T05:24:04.678Z,23.50
2018-01-23T05:26:33.041Z,23.60
2018-01-23T05:29:01.445Z,21.77
2018-01-23T05:31:29.064Z,23.70
2018-01-23T05:33:58.164Z,16.47
2018-01-23T05:36:25.784Z,27.73
2018-01-23T05:38:53.373Z,20.33
2018-01-23T05:41:20.967Z,29.40
2018-01-23T05:43:49.356Z,18.60
2018-01-23T05:46:17.708Z,16.93
2018-01-23T05:48:45.301Z,20.27
2018-01-23T05:51:12.954Z,27.97
2018-01-23T05:53:41.334Z,24.10
2018-01-23T05:56:08.924Z,22.90
2018-01-23T05:58:36.576Z,19.70
2018-01-23T06:01:04.177Z,22.10
2018-01-23T06:03:31.770Z,23.87
2018-01-23T06:06:00.178Z,28.83
2018-01-23T06:08:27.764Z,23.60
2018-01-23T06:10:55.375Z,20.57
2018-01-23T06:13:23.777Z,26.47
2018-01-23T06:15:51.373Z,27.47
2018-01-23T06:18:18.974Z,19.03
2018-01-23T06:20:47.381Z,21.47
2018-01-23T06:23:14.984Z,23.20
2018-01-23T06:25:42.611Z,20.90
2018-01-23T06:28:10.236Z,20.03
2018-01-23T06:30:38.593Z,18.97
2018-01-23T06:33:06.216Z,27.63
2018-01-23T06:35:33.831Z,15.53
2018-01-23T06:38:02.200Z,20.00
2018-01-23T06:40:30.596Z,17.50
2018-01-23T06:42:58.958Z,25.23
2018-01-23T06:45:27.354Z,25.40
2018-01-23T06:47:54.949Z,26.50
2018-01-23T06:50:22.569Z,27.20
2018-01-23T06:52:50.936Z,15.73
2018-01-23T06:55:19.334Z,21.60
2018-01-23T06:57:46.928Z,23.97
2018-01-23T07:00:14.552Z,12.80
2018-01-23T07:02:42.148Z,17.90
2018-01-23T07:05:09.769Z,17.50
2018-01-23T07:07:38.128Z,19.40
2018-01-23T07:10:05.749Z,22.60
2018-01-23T07:12:33.409Z,18.97
2018-01-23T07:15:01.041Z,26.00
2018-01-23T07:17:28.647Z,18.90
2018-01-23T07:19:56.260Z,16.30
2018-01-23T07:22:23.852Z,26.20
2018-01-23T07:24:51.483Z,20.97
2018-01-23T07:27:19.094Z,28.17
2018-01-23T07:29:46.696Z,25.33
2018-01-23T07:32:15.433Z,33.50
2018-01-23T07:34:43.033Z,19.37
2018-01-23T07:37:11.389Z,26.17
2018-01-23T07:39:39.132Z,25.53
2018-01-23T07:42:06.724Z,15.60
2018-01-23T07:44:34.323Z,28.53
2018-01-23T07:47:01.955Z,21.13
2018-01-23T07:49:30.318Z,25.77
2018-01-23T07:51:57.914Z,18.80
2018-01-23T07:54:25.543Z,29.73
2018-01-23T07:56:53.145Z,24.33
2018-01-23T07:59:20.740Z,21.97
2018-01-23T08:01:48.377Z,26.97
2018-01-23T08:04:15.970Z,23.07
2018-01-23T08:06:45.674Z,27.50
2018-01-23T08:09:13.463Z,26.17
2018-01-23T08:11:41.077Z,24.70
2018-01-23T08:14:08.673Z,25.20
2018-01-23T08:16:37.827Z,29.80
2018-01-23T08:19:05.423Z,28.00
2018-01-23T08:21:33.013Z,22.40
2018-01-23T08:24:01.442Z,24.07
2018-01-23T08:26:29.432Z,23.50
2018-01-23T08:28:57.086Z,20.43
2018-01-23T08:31:24.728Z,24.77
2018-01-23T08:33:52.320Z,25.40
2018-01-23T08:36:19.941Z,29.77
2018-01-23T08:38:47.579Z,27.73
2018-01-23T08:41:15.942Z,23.93
2018-01-23T08:43:44.308Z,44.60
2018-01-23T08:46:11.927Z,24.30
2018-01-23T08:48:39.521Z,33.00
2018-01-23T08:51:07.136Z,40.57
2018-01-23T08:53:34.761Z,32.10
2018-01-23T08:56:03.120Z,29.67
2018-01-23T08:58:30.720Z,25.97
2018-01-23T09:00:58.351Z,28.23
2018-01-23T09:03:25.945Z,26.47
2018-01-23T09:05:53.540Z,27.23
2018-01-23T09:08:21.178Z,39.63
2018-01-23T09:10:48.769Z,42.23
2018-01-23T09:13:16.388Z,23.93
2018-01-23T09:15:44.900Z,45.23
2018-01-23T09:18:12.644Z,37.13
2018-01-23T09:20:40.256Z,34.87
2018-01-23T09:23:08.632Z,28.53
2018-01-23T09:25:36.254Z,29.80
2018-01-23T09:28:03.934Z,39.87
2018-01-23T09:30:31.543Z,32.17
2018-01-23T09:32:59.929Z,56.90
2018-01-23T09:35:27.529Z,45.20
2018-01-23T09:37:55.145Z,46.07
2018-01-23T09:40:23.508Z,47.33
2018-01-23T09:42:51.896Z,54.40
2018-01-23T09:45:20.252Z,33.57
2018-01-23T09:47:47.881Z,44.87
2018-01-23T09:50:15.472Z,25.60
2018-01-23T09:52:43.071Z,26.93
2018-01-23T09:55:10.717Z,33.93
2018-01-23T09:57:39.106Z,36.43
2018-01-23T10:00:07.462Z,37.70
2018-01-23T10:02:35.856Z,33.90
2018-01-23T10:05:04.232Z,34.77
2018-01-23T10:07:32.588Z,28.47
2018-01-23T10:10:00.236Z,38.77
2018-01-23T10:12:27.867Z,44.10
2018-01-23T10:14:55.569Z,28.80
2018-01-23T10:17:24.706Z,32.40
2018-01-23T10:19:52.299Z,35.97
2018-01-23T10:22:19.915Z,51.13
2018-01-23T10:24:48.288Z,30.30
2018-01-23T10:27:16.692Z,35.23
2018-01-23T10:29:44.336Z,32.67
2018-01-23T10:32:12.748Z,38.03
2018-01-23T10:34:40.372Z,40.23
2018-01-23T10:37:08.752Z,40.87
2018-01-23T10:39:37.116Z,34.13
2018-01-23T10:42:06.379Z,30.07
2018-01-23T10:44:34.039Z,35.13
2018-01-23T10:47:01.704Z,26.70
2018-01-23T10:49:29.293Z,25.67
2018-01-23T10:51:56.935Z,52.50
2018-01-23T10:54:24.532Z,41.23
2018-01-23T10:56:52.957Z,37.50
2018-01-23T10:59:20.673Z,33.53
2018-01-23T11:01:49.060Z,30.90
2018-01-23T11:04:17.429Z,40.13
2018-01-23T11:06:45.146Z,23.07
2018-01-23T11:09:12.744Z,30.73
2018-01-23T11:11:40.368Z,33.43
2018-01-23T11:14:07.976Z,42.50
2018-01-23T11:16:36.548Z,33.87
2018-01-23T11:19:04.216Z,28.90
2018-01-23T11:21:31.851Z,49.43
2018-01-23T11:23:59.446Z,32.17
2018-01-23T11:26:27.836Z,30.60
2018-01-23T11:28:56.204Z,38.03
2018-01-23T11:31:24.564Z,28.37
2018-01-23T11:33:52.316Z,41.97
2018-01-23T11:36:19.908Z,50.80
2018-01-23T11:38:48.271Z,33.93
2018-01-23T11:41:15.917Z,35.83
2018-01-23T11:43:43.520Z,56.60
2018-01-23T11:46:11.881Z,37.03
2018-01-23T11:48:40.281Z,41.70
2018-01-23T11:51:07.880Z,35.33
2018-01-23T11:53:35.476Z,43.00
2018-01-23T11:56:03.421Z,41.47
2018-01-23T11:58:31.285Z,36.13
2018-01-23T12:00:58.884Z,36.03
2018-01-23T12:03:27.282Z,36.77
2018-01-23T12:05:55.033Z,30.03
2018-01-23T12:08:23.394Z,38.07
2018-01-23T12:10:51.788Z,34.73
2018-01-23T12:13:20.165Z,31.10
2018-01-23T12:15:48.548Z,35.27
2018-01-23T12:18:16.914Z,30.90
2018-01-23T12:20:45.308Z,42.13
2018-01-23T12:23:13.697Z,38.17
2018-01-23T12:25:41.322Z,37.97
2018-01-23T12:28:08.956Z,40.67
2018-01-23T12:30:36.577Z,36.97
2018-01-23T12:33:04.177Z,31.23
2018-01-23T12:35:31.836Z,37.23
2018-01-23T12:37:59.460Z,38.33
2018-01-23T12:40:27.073Z,34.50
2018-01-23T12:42:54.709Z,30.50
2018-01-23T12:45:22.308Z,35.57
2018-01-23T12:47:49.900Z,30.13
2018-01-23T12:50:17.621Z,33.87
2018-01-23T12:52:45.231Z,38.90
2018-01-23T12:55:12.828Z,37.07
2018-01-23T12:57:40.472Z,31.43
2018-01-23T13:00:08.078Z,33.67
2018-01-23T13:02:35.686Z,41.17
2018-01-23T13:05:03.333Z,28.77
2018-01-23T13:07:30.928Z,40.67
2018-01-23T13:09:58.596Z,37.60
2018-01-23T13:12:26.257Z,30.20
2018-01-23T13:14:53.883Z,35.60
2018-01-23T13:17:21.481Z,39.17
2018-01-23T13:19:49.121Z,32.50
2018-01-23T13:22:16.729Z,45.20
2018-01-23T13:24:44.329Z,30.20
2018-01-23T13:27:11.972Z,34.80
2018-01-23T13:29:40.357Z,29.63
2018-01-23T13:32:07.963Z,24.77
2018-01-23T13:34:35.632Z,40.20
2018-01-23T13:37:03.236Z,34.30
2018-01-23T13:39:31.655Z,44.17
2018-01-23T13:41:59.288Z,27.20
2018-01-23T13:44:26.885Z,24.73
2018-01-23T13:46:54.483Z,37.20
2018-01-23T13:49:22.883Z,25.00
2018-01-23T13:51:50.485Z,27.47
2018-01-23T13:54:18.109Z,28.70
2018-01-23T13:56:45.723Z,24.30
2018-01-23T13:59:13.391Z,21.60
2018-01-23T14:01:40.993Z,31.10
2018-01-23T14:04:08.628Z,26.63
2018-01-23T14:06:37.009Z,30.53
2018-01-23T14:09:05.415Z,17.97
2018-01-23T14:11:33.019Z,20.60
2018-01-23T14:14:00.639Z,22.80
2018-01-23T14:16:28.235Z,20.30
2018-01-23T14:18:55.877Z,34.03
2018-01-23T14:21:23.488Z,17.60
2018-01-23T14:23:51.872Z,18.70
2018-01-23T14:26:20.248Z,23.50
2018-01-23T14:28:48.642Z,33.97
2018-01-23T14:31:16.245Z,30.03
2018-01-23T14:33:43.870Z,23.70
2018-01-23T14:36:11.470Z,23.43
2018-01-23T14:38:39.066Z,22.07
2018-01-23T14:41:07.469Z,24.27
2018-01-23T14:43:35.096Z,25.50
2018-01-23T14:46:02.690Z,26.50
2018-01-23T14:48:30.328Z,18.80
2018-01-23T14:50:57.942Z,25.30
2018-01-23T14:53:25.547Z,30.60
2018-01-23T14:55:53.173Z,19.77
2018-01-23T14:58:20.768Z,31.83
2018-01-23T15:00:48.369Z,28.67
2018-01-23T15:03:16.065Z,26.87
2018-01-23T15:05:43.648Z,19.80
2018-01-23T15:08:11.247Z,21.43
2018-01-23T15:10:38.891Z,18.73
2018-01-23T15:13:07.253Z,23.60
2018-01-23T15:15:34.845Z,20.63
2018-01-23T15:18:02.496Z,19.73
2018-01-23T15:20:30.861Z,24.47
2018-01-23T15:22:59.232Z,18.23
2018-01-23T15:25:26.856Z,20.33
2018-01-23T15:27:54.444Z,18.30
2018-01-23T15:30:22.045Z,20.73
2018-01-23T15:32:49.685Z,24.43
2018-01-23T15:35:18.065Z,18.60
2018-01-23T15:37:46.441Z,22.43
2018-01-23T15:40:14.840Z,22.03
2018-01-23T15:42:42.436Z,19.50
2018-01-23T15:45:10.081Z,22.47
2018-01-23T15:47:37.680Z,19.87
2018-01-23T15:50:05.305Z,28.03
2018-01-23T15:52:32.904Z,17.20
2018-01-23T15:55:00.544Z,19.90
2018-01-23T15:57:28.149Z,24.90
2018-01-23T15:59:56.512Z,14.47
2018-01-23T16:02:24.901Z,22.07
2018-01-23T16:04:53.269Z,15.70
2018-01-23T16:07:20.887Z,15.90
2018-01-23T16:09:48.492Z,24.33
2018-01-23T16:12:16.116Z,16.33
2018-01-23T16:14:43.717Z,15.10
2018-01-23T16:17:12.153Z,18.50
2018-01-23T16:19:39.752Z,13.67
2018-01-23T16:22:07.383Z,17.53
2018-01-23T16:24:34.999Z,17.13
2018-01-23T16:27:03.365Z,9.40
2018-01-23T16:29:31.756Z,17.27
2018-01-23T16:32:00.170Z,11.90
2018-01-23T16:34:27.772Z,19.23
2018-01-23T16:36:56.169Z,17.73
2018-01-23T16:39:24.548Z,16.23
2018-01-23T16:41:53.074Z,14.20
2018-01-23T16:44:20.659Z,9.80
2018-01-23T16:46:48.297Z,9.33
2018-01-23T16:49:15.900Z,12.33
2018-01-23T16:51:44.252Z,12.90
2018-01-23T16:54:11.878Z,15.23
2018-01-23T16:56:39.468Z,18.20
2018-01-23T16:59:07.064Z,14.23
2018-01-23T17:01:35.462Z,15.43
2018-01-23T17:04:03.061Z,13.17
2018-01-23T17:06:30.668Z,17.13
2018-01-23T17:08:59.090Z,13.60
2018-01-23T17:11:26.680Z,14.37
2018-01-23T17:13:54.282Z,16.13
2018-01-23T17:16:21.905Z,19.53
2018-01-23T17:18:49.533Z,12.10
2018-01-23T17:21:17.180Z,13.83
2018-01-23T17:23:44.773Z,7.67
2018-01-23T17:26:12.416Z,14.13
2018-01-23T17:28:40.305Z,19.00
2018-01-23T17:31:08.168Z,12.97
2018-01-23T17:33:36.143Z,16.07
2018-01-23T17:36:04.821Z,12.43
2018-01-23T17:38:32.496Z,14.83
2018-01-23T17:41:01.273Z,9.50
2018-01-23T17:43:28.900Z,13.13
2018-01-23T17:45:56.557Z,12.23
2018-01-23T17:48:24.206Z,15.00
2018-01-23T17:50:53.537Z,14.00
2018-01-23T17:53:21.133Z,12.73
2018-01-23T17:55:48.735Z,10.43
2018-01-23T17:58:16.364Z,14.63
2018-01-23T18:00:43.969Z,11.03
2018-01-23T18:03:11.571Z,11.00
2018-01-23T18:05:39.201Z,12.80
2018-01-23T18:08:06.798Z,13.10
2018-01-23T18:10:34.403Z,17.07
2018-01-23T18:13:02.065Z,10.73
2018-01-23T18:15:29.669Z,16.43
2018-01-23T18:17:57.281Z,11.00
2018-01-23T18:20:24.911Z,8.60
2018-01-23T18:22:53.273Z,9.20
2018-01-23T18:25:20.876Z,12.43
2018-01-23T18:27:49.283Z,14.97
2018-01-23T18:30:16.879Z,13.50
2018-01-23T18:32:44.474Z,9.57
2018-01-23T18:35:12.867Z,12.50
2018-01-23T18:37:40.472Z,13.67
2018-01-23T18:40:08.073Z,13.90
2018-01-23T18:42:36.465Z,9.37
2018-01-23T18:45:04.067Z,9.03
2018-01-23T18:47:31.661Z,10.57
2018-01-23T18:50:00.069Z,8.67
2018-01-23T18:52:27.689Z,9.33
2018-01-23T18:54:55.276Z,9.37
2018-01-23T18:57:23.672Z,11.07
2018-01-23T18:59:51.264Z,8.67
2018-01-23T19:02:18.857Z,12.47
2018-01-23T19:04:46.496Z,10.93
2018-01-23T19:07:14.100Z,14.97
2018-01-23T19:09:42.480Z,10.77
2018-01-23T19:12:10.115Z,14.37
2018-01-23T19:14:37.707Z,10.80
2018-01-23T19:17:05.302Z,7.93
2018-01-23T19:19:32.956Z,12.77
2018-01-23T19:22:00.586Z,6.57
2018-01-23T19:24:28.954Z,11.80
2018-01-23T19:26:57.365Z,10.60
2018-01-23T19:29:24.972Z,12.57
2018-01-23T19:31:52.568Z,9.63
2018-01-23T19:34:20.211Z,6.83
2018-01-23T19:36:48.573Z,11.20
2018-01-23T19:39:16.166Z,9.93
2018-01-23T19:41:43.797Z,15.60
2018-01-23T19:44:12.317Z,10.23
2018-01-23T19:46:39.914Z,14.50
2018-01-23T19:49:07.540Z,11.93
2018-01-23T19:51:35.163Z,12.43
2018-01-23T19:54:02.762Z,11.13
2018-01-23T19:56:30.400Z,11.50
2018-01-23T19:58:58.802Z,8.43
2018-01-23T20:01:26.400Z,7.93
2018-01-23T20:03:54.041Z,12.30
2018-01-23T20:06:21.631Z,6.90
2018-01-23T20:08:49.992Z,10.33
2018-01-23T20:11:17.621Z,7.87
2018-01-23T20:13:45.215Z,9.53
2018-01-23T20:16:12.805Z,8.27
2018-01-23T20:18:40.433Z,6.47
2018-01-23T20:21:08.029Z,11.93
2018-01-23T20:23:36.394Z,12.17
2018-01-23T20:26:04.033Z,8.10
2018-01-23T20:28:31.624Z,8.80
2018-01-23T20:30:59.228Z,16.17
2018-01-23T20:33:26.856Z,6.50
2018-01-23T20:35:55.231Z,9.00
2018-01-23T20:38:22.837Z,9.20
2018-01-23T20:40:50.464Z,7.50
2018-01-23T20:43:18.820Z,9.27
2018-01-23T20:45:46.416Z,6.80
2018-01-23T20:48:14.041Z,9.03
2018-01-23T20:50:41.696Z,7.57
2018-01-23T20:53:09.296Z,7.10
2018-01-23T20:55:36.934Z,9.90
2018-01-23T20:58:04.529Z,12.00
2018-01-23T21:00:32.125Z,9.37
2018-01-23T21:02:59.752Z,5.77
2018-01-23T21:05:27.349Z,5.40
2018-01-23T21:07:54.949Z,4.47
2018-01-23T21:10:23.495Z,4.80
2018-01-23T21:12:51.097Z,4.23
2018-01-23T21:15:19.462Z,5.90
2018-01-23T21:17:47.091Z,5.10
2018-01-23T21:20:14.689Z,10.17
2018-01-23T21:22:43.083Z,7.30
2018-01-23T21:25:11.445Z,5.00
2018-01-23T21:27:39.810Z,8.70
2018-01-23T21:30:07.433Z,7.03
2018-01-23T21:32:35.030Z,10.03
2018-01-23T21:35:02.652Z,14.50
2018-01-23T21:37:30.280Z,6.00
2018-01-23T21:39:58.634Z,7.27
2018-01-23T21:42:26.305Z,7.60
2018-01-23T21:44:54.692Z,7.27
2018-01-23T21:47:23.051Z,7.73
2018-01-23T21:49:52.150Z,9.70
2018-01-23T21:52:20.532Z,7.17
2018-01-23T21:54:48.902Z,10.13
2018-01-23T21:57:16.526Z,9.03
2018-01-23T21:59:44.117Z,8.30
2018-01-23T22:02:11.741Z,8.97
2018-01-23T22:04:39.369Z,5.73
2018-01-23T22:07:07.935Z,10.77
2018-01-23T22:09:35.533Z,10.83
2018-01-23T22:12:03.196Z,11.03
2018-01-23T22:14:30.791Z,9.47
2018-01-23T22:16:58.587Z,5.70
2018-01-23T22:19:26.980Z,12.67
2018-01-23T22:21:55.343Z,10.93
2018-01-23T22:24:23.075Z,11.00
2018-01-23T22:26:50.702Z,10.20
2018-01-23T22:29:18.300Z,8.47
2018-01-23T22:31:45.930Z,6.87
2018-01-23T22:34:13.523Z,10.97
2018-01-23T22:36:41.124Z,8.53
2018-01-23T22:39:09.522Z,7.57
2018-01-23T22:41:37.124Z,7.97
2018-01-23T22:44:04.723Z,6.43
2018-01-23T22:46:33.130Z,11.47
2018-01-23T22:49:00.724Z,10.80
2018-01-23T22:51:28.309Z,9.80
2018-01-23T22:53:55.947Z,11.00
2018-01-23T22:56:23.548Z,11.23
2018-01-23T22:58:51.908Z,7.17
2018-01-23T23:01:20.304Z,8.80
2018-01-23T23:03:48.654Z,7.90
2018-01-23T23:06:16.277Z,7.50
2018-01-23T23:08:43.872Z,7.37
2018-01-23T23:11:11.477Z,11.60
2018-01-23T23:13:39.100Z,11.70
2018-01-23T23:16:06.703Z,9.57
2018-01-23T23:18:34.300Z,7.03
2018-01-23T23:21:01.929Z,13.50
2018-01-23T23:23:29.535Z,12.37
2018-01-23T23:25:57.141Z,9.93
2018-01-23T23:28:24.796Z,10.60
2018-01-23T23:30:53.158Z,10.10
2018-01-23T23:33:21.548Z,9.43
2018-01-23T23:35:49.905Z,8.47
2018-01-23T23:38:17.513Z,7.93
2018-01-23T23:40:45.156Z,8.10
2018-01-23T23:43:12.756Z,8.93
2018-01-23T23:45:40.356Z,10.07
2018-01-23T23:48:08.901Z,9.10
2018-01-23T23:50:36.497Z,16.53
2018-01-23T23:53:04.096Z,8.37
2018-01-23T23:55:31.723Z,5.03
2018-01-23T23:58:00.090Z,12.67
